sensor_id;sensor_type;location;lat;lon;timestamp;temperature;humidity
4411;DHT22;2218;51.408;7.208;2024-01-10T00:01:49;16.40;22.10
4411;DHT22;2218;51.408;7.208;2024-01-10T00:04:16;16.30;22.10
4411;DHT22;2218;51.408;7.208;2024-01-10T00:06:43;16.30;22.10
4411;DHT22;2218;51.408;7.208;2024-01-10T00:09:11;16.30;22.20
4411;DHT22;2218;51.408;7.208;2024-01-10T00:11:38;16.30;22.20
4411;DHT22;2218;51.408;7.208;2024-01-10T00:14:05;16.20;22.20
4411;DHT22;2218;51.408;7.208;2024-01-10T00:16:32;16.20;22.20
4411;DHT22;2218;51.408;7.208;2024-01-10T00:18:59;16.20;22.30
4411;DHT22;2218;51.408;7.208;2024-01-10T00:21:26;16.20;22.30
4411;DHT22;2218;51.408;7.208;2024-01-10T00:23:53;16.10;22.20
4411;DHT22;2218;51.408;7.208;2024-01-10T00:26:22;16.10;22.30
4411;DHT22;2218;51.408;7.208;2024-01-10T00:28:49;16.10;22.20
4411;DHT22;2218;51.408;7.208;2024-01-10T00:31:16;16.10;22.30
4411;DHT22;2218;51.408;7.208;2024-01-10T00:33:43;16.10;22.30
4411;DHT22;2218;51.408;7.208;2024-01-10T00:36:10;16.10;22.40
4411;DHT22;2218;51.408;7.208;2024-01-10T00:38:38;16.10;22.40
4411;DHT22;2218;51.408;7.208;2024-01-10T00:41:05;16.00;22.30
4411;DHT22;2218;51.408;7.208;2024-01-10T00:43:34;16.10;22.40
4411;DHT22;2218;51.408;7.208;2024-01-10T00:46:01;16.00;22.40
4411;DHT22;2218;51.408;7.208;2024-01-10T00:48:28;16.00;22.40
4411;DHT22;2218;51.408;7.208;2024-01-10T00:50:56;16.00;22.40
4411;DHT22;2218;51.408;7.208;2024-01-10T00:53:23;16.00;22.40
4411;DHT22;2218;51.408;7.208;2024-01-10T00:55:50;16.00;22.30
4411;DHT22;2218;51.408;7.208;2024-01-10T00:58:17;16.10;22.30
4411;DHT22;2218;51.408;7.208;2024-01-10T01:00:46;16.10;22.30
4411;DHT22;2218;51.408;7.208;2024-01-10T01:03:13;16.20;22.30
4411;DHT22;2218;51.408;7.208;2024-01-10T01:05:40;16.30;22.20
4411;DHT22;2218;51.408;7.208;2024-01-10T01:08:07;16.30;22.20
4411;DHT22;2218;51.408;7.208;2024-01-10T01:10:33;16.40;22.20
4411;DHT22;2218;51.408;7.208;2024-01-10T01:13:00;16.40;22.10
4411;DHT22;2218;51.408;7.208;2024-01-10T01:15:27;16.40;22.00
4411;DHT22;2218;51.408;7.208;2024-01-10T01:17:57;16.50;21.80
4411;DHT22;2218;51.408;7.208;2024-01-10T01:20:23;16.50;21.80
4411;DHT22;2218;51.408;7.208;2024-01-10T01:22:50;16.50;21.70
4411;DHT22;2218;51.408;7.208;2024-01-10T01:25:18;16.50;21.50
4411;DHT22;2218;51.408;7.208;2024-01-10T01:27:46;16.60;21.50
4411;DHT22;2218;51.408;7.208;2024-01-10T01:30:13;16.60;21.40
4411;DHT22;2218;51.408;7.208;2024-01-10T01:32:40;16.60;21.40
4411;DHT22;2218;51.408;7.208;2024-01-10T01:35:09;16.60;21.40
4411;DHT22;2218;51.408;7.208;2024-01-10T01:37:35;16.60;21.40
4411;DHT22;2218;51.408;7.208;2024-01-10T01:40:03;16.70;21.40
4411;DHT22;2218;51.408;7.208;2024-01-10T01:42:31;16.70;21.30
4411;DHT22;2218;51.408;7.208;2024-01-10T01:44:58;16.70;21.30
4411;DHT22;2218;51.408;7.208;2024-01-10T01:47:25;16.70;21.20
4411;DHT22;2218;51.408;7.208;2024-01-10T01:49:53;16.70;21.10
4411;DHT22;2218;51.408;7.208;2024-01-10T01:52:22;16.70;21.20
4411;DHT22;2218;51.408;7.208;2024-01-10T01:54:50;16.70;21.20
4411;DHT22;2218;51.408;7.208;2024-01-10T01:57:17;16.70;21.20
4411;DHT22;2218;51.408;7.208;2024-01-10T01:59:44;16.70;21.20
4411;DHT22;2218;51.408;7.208;2024-01-10T02:02:11;16.80;21.30
4411;DHT22;2218;51.408;7.208;2024-01-10T02:04:42;16.80;21.10
4411;DHT22;2218;51.408;7.208;2024-01-10T02:07:09;16.80;21.20
4411;DHT22;2218;51.408;7.208;2024-01-10T02:09:37;16.80;21.10
4411;DHT22;2218;51.408;7.208;2024-01-10T02:12:05;16.80;21.10
4411;DHT22;2218;51.408;7.208;2024-01-10T02:14:32;16.80;21.10
4411;DHT22;2218;51.408;7.208;2024-01-10T02:17:00;16.80;21.00
4411;DHT22;2218;51.408;7.208;2024-01-10T02:19:27;16.80;21.00
4411;DHT22;2218;51.408;7.208;2024-01-10T02:21:56;16.80;20.90
4411;DHT22;2218;51.408;7.208;2024-01-10T02:24:23;16.80;21.00
4411;DHT22;2218;51.408;7.208;2024-01-10T02:26:51;16.80;21.10
4411;DHT22;2218;51.408;7.208;2024-01-10T02:29:18;16.80;21.00
4411;DHT22;2218;51.408;7.208;2024-01-10T02:31:45;16.80;20.90
4411;DHT22;2218;51.408;7.208;2024-01-10T02:34:12;16.90;20.90
4411;DHT22;2218;51.408;7.208;2024-01-10T02:36:40;16.80;20.80
4411;DHT22;2218;51.408;7.208;2024-01-10T02:39:07;16.90;21.40
4411;DHT22;2218;51.408;7.208;2024-01-10T02:41:34;16.90;20.90
4411;DHT22;2218;51.408;7.208;2024-01-10T02:44:03;16.90;21.00
4411;DHT22;2218;51.408;7.208;2024-01-10T02:46:30;16.90;20.90
4411;DHT22;2218;51.408;7.208;2024-01-10T02:48:57;16.90;20.80
4411;DHT22;2218;51.408;7.208;2024-01-10T02:51:26;16.90;20.80
4411;DHT22;2218;51.408;7.208;2024-01-10T02:53:55;16.90;20.80
4411;DHT22;2218;51.408;7.208;2024-01-10T02:56:22;16.90;20.80
4411;DHT22;2218;51.408;7.208;2024-01-10T02:58:49;16.90;20.80
4411;DHT22;2218;51.408;7.208;2024-01-10T03:01:18;16.90;20.90
4411;DHT22;2218;51.408;7.208;2024-01-10T03:03:45;16.90;20.90
4411;DHT22;2218;51.408;7.208;2024-01-10T03:06:12;16.90;20.80
4411;DHT22;2218;51.408;7.208;2024-01-10T03:08:39;16.90;20.90
4411;DHT22;2218;51.408;7.208;2024-01-10T03:11:06;16.90;20.80
4411;DHT22;2218;51.408;7.208;2024-01-10T03:13:33;16.90;20.70
4411;DHT22;2218;51.408;7.208;2024-01-10T03:16:00;16.90;20.90
4411;DHT22;2218;51.408;7.208;2024-01-10T03:18:29;16.90;20.80
4411;DHT22;2218;51.408;7.208;2024-01-10T03:20:56;16.90;20.80
4411;DHT22;2218;51.408;7.208;2024-01-10T03:23:22;16.90;20.80
4411;DHT22;2218;51.408;7.208;2024-01-10T03:25:49;16.90;20.80
4411;DHT22;2218;51.408;7.208;2024-01-10T03:28:17;16.90;20.80
4411;DHT22;2218;51.408;7.208;2024-01-10T03:30:44;16.90;20.80
4411;DHT22;2218;51.408;7.208;2024-01-10T03:33:11;16.90;20.70
4411;DHT22;2218;51.408;7.208;2024-01-10T03:35:40;17.00;20.80
4411;DHT22;2218;51.408;7.208;2024-01-10T03:38:07;17.00;20.80
4411;DHT22;2218;51.408;7.208;2024-01-10T03:40:34;17.00;20.70
4411;DHT22;2218;51.408;7.208;2024-01-10T03:43:03;17.00;20.80
4411;DHT22;2218;51.408;7.208;2024-01-10T03:45:30;17.00;20.80
4411;DHT22;2218;51.408;7.208;2024-01-10T03:47:57;17.00;20.80
4411;DHT22;2218;51.408;7.208;2024-01-10T03:50:24;17.00;20.70
4411;DHT22;2218;51.408;7.208;2024-01-10T03:52:53;17.00;20.70
4411;DHT22;2218;51.408;7.208;2024-01-10T03:55:20;17.00;20.70
4411;DHT22;2218;51.408;7.208;2024-01-10T03:57:46;17.00;20.70
4411;DHT22;2218;51.408;7.208;2024-01-10T04:00:13;17.00;20.70
4411;DHT22;2218;51.408;7.208;2024-01-10T04:02:41;17.00;20.70
4411;DHT22;2218;51.408;7.208;2024-01-10T04:05:09;17.00;20.60
4411;DHT22;2218;51.408;7.208;2024-01-10T04:07:39;17.00;20.70
4411;DHT22;2218;51.408;7.208;2024-01-10T04:10:09;17.00;20.70
4411;DHT22;2218;51.408;7.208;2024-01-10T04:12:39;17.00;20.70
4411;DHT22;2218;51.408;7.208;2024-01-10T04:15:06;17.00;20.70
4411;DHT22;2218;51.408;7.208;2024-01-10T04:17:34;17.00;20.70
4411;DHT22;2218;51.408;7.208;2024-01-10T04:20:01;17.00;20.60
4411;DHT22;2218;51.408;7.208;2024-01-10T04:22:29;17.00;20.70
4411;DHT22;2218;51.408;7.208;2024-01-10T04:24:57;17.00;20.70
4411;DHT22;2218;51.408;7.208;2024-01-10T04:27:27;17.00;20.70
4411;DHT22;2218;51.408;7.208;2024-01-10T04:29:54;17.00;20.70
4411;DHT22;2218;51.408;7.208;2024-01-10T04:32:21;17.00;20.70
4411;DHT22;2218;51.408;7.208;2024-01-10T04:34:48;17.00;20.60
4411;DHT22;2218;51.408;7.208;2024-01-10T04:37:15;17.00;20.70
4411;DHT22;2218;51.408;7.208;2024-01-10T04:39:42;17.00;20.60
4411;DHT22;2218;51.408;7.208;2024-01-10T04:42:10;17.00;20.60
4411;DHT22;2218;51.408;7.208;2024-01-10T04:44:39;17.00;20.60
4411;DHT22;2218;51.408;7.208;2024-01-10T04:47:06;17.00;20.60
4411;DHT22;2218;51.408;7.208;2024-01-10T04:49:33;17.00;20.70
4411;DHT22;2218;51.408;7.208;2024-01-10T04:52:01;17.00;20.70
4411;DHT22;2218;51.408;7.208;2024-01-10T04:54:28;17.00;20.70
4411;DHT22;2218;51.408;7.208;2024-01-10T04:56:55;17.00;20.70
4411;DHT22;2218;51.408;7.208;2024-01-10T04:59:22;17.00;20.60
4411;DHT22;2218;51.408;7.208;2024-01-10T05:01:50;17.00;20.70
4411;DHT22;2218;51.408;7.208;2024-01-10T05:04:18;17.00;20.60
4411;DHT22;2218;51.408;7.208;2024-01-10T05:06:45;17.00;20.50
4411;DHT22;2218;51.408;7.208;2024-01-10T05:09:13;17.00;20.50
4411;DHT22;2218;51.408;7.208;2024-01-10T05:11:40;17.00;20.50
4411;DHT22;2218;51.408;7.208;2024-01-10T05:14:07;17.00;20.50
4411;DHT22;2218;51.408;7.208;2024-01-10T05:16:34;17.00;20.40
4411;DHT22;2218;51.408;7.208;2024-01-10T05:19:02;17.10;20.50
4411;DHT22;2218;51.408;7.208;2024-01-10T05:21:30;17.10;20.50
4411;DHT22;2218;51.408;7.208;2024-01-10T05:23:58;17.10;20.50
4411;DHT22;2218;51.408;7.208;2024-01-10T05:26:25;17.10;20.50
4411;DHT22;2218;51.408;7.208;2024-01-10T05:28:52;17.10;20.50
4411;DHT22;2218;51.408;7.208;2024-01-10T05:31:19;17.10;20.50
4411;DHT22;2218;51.408;7.208;2024-01-10T05:33:46;17.20;20.50
4411;DHT22;2218;51.408;7.208;2024-01-10T05:36:14;17.20;20.50
4411;DHT22;2218;51.408;7.208;2024-01-10T05:38:41;17.10;20.40
4411;DHT22;2218;51.408;7.208;2024-01-10T05:41:08;17.20;20.50
4411;DHT22;2218;51.408;7.208;2024-01-10T05:43:35;17.20;20.40
4411;DHT22;2218;51.408;7.208;2024-01-10T05:46:03;17.20;20.50
4411;DHT22;2218;51.408;7.208;2024-01-10T05:48:31;17.20;20.40
4411;DHT22;2218;51.408;7.208;2024-01-10T05:50:58;17.20;20.40
4411;DHT22;2218;51.408;7.208;2024-01-10T05:53:28;17.20;20.30
4411;DHT22;2218;51.408;7.208;2024-01-10T05:55:55;17.20;20.40
4411;DHT22;2218;51.408;7.208;2024-01-10T05:58:22;17.20;20.30
4411;DHT22;2218;51.408;7.208;2024-01-10T06:00:49;17.30;20.40
4411;DHT22;2218;51.408;7.208;2024-01-10T06:03:16;17.20;20.40
4411;DHT22;2218;51.408;7.208;2024-01-10T06:05:43;17.30;20.50
4411;DHT22;2218;51.408;7.208;2024-01-10T06:08:10;17.30;20.40
4411;DHT22;2218;51.408;7.208;2024-01-10T06:10:38;17.30;20.30
4411;DHT22;2218;51.408;7.208;2024-01-10T06:13:05;17.30;20.40
4411;DHT22;2218;51.408;7.208;2024-01-10T06:15:32;17.30;20.30
4411;DHT22;2218;51.408;7.208;2024-01-10T06:17:59;17.30;20.30
4411;DHT22;2218;51.408;7.208;2024-01-10T06:20:26;17.30;20.30
4411;DHT22;2218;51.408;7.208;2024-01-10T06:22:53;17.30;20.30
4411;DHT22;2218;51.408;7.208;2024-01-10T06:25:20;17.30;20.20
4411;DHT22;2218;51.408;7.208;2024-01-10T06:27:51;17.30;20.30
4411;DHT22;2218;51.408;7.208;2024-01-10T06:30:17;17.30;20.20
4411;DHT22;2218;51.408;7.208;2024-01-10T06:32:44;17.30;20.20
4411;DHT22;2218;51.408;7.208;2024-01-10T06:35:12;17.30;20.20
4411;DHT22;2218;51.408;7.208;2024-01-10T06:37:40;17.40;20.30
4411;DHT22;2218;51.408;7.208;2024-01-10T06:40:10;17.30;20.20
4411;DHT22;2218;51.408;7.208;2024-01-10T06:42:38;17.40;20.30
4411;DHT22;2218;51.408;7.208;2024-01-10T06:45:08;17.40;20.20
4411;DHT22;2218;51.408;7.208;2024-01-10T06:47:37;17.30;20.20
4411;DHT22;2218;51.408;7.208;2024-01-10T06:50:05;17.40;20.20
4411;DHT22;2218;51.408;7.208;2024-01-10T06:52:34;17.40;20.30
4411;DHT22;2218;51.408;7.208;2024-01-10T06:55:01;17.60;20.30
4411;DHT22;2218;51.408;7.208;2024-01-10T06:57:29;17.70;19.60
4411;DHT22;2218;51.408;7.208;2024-01-10T06:59:56;17.80;18.90
4411;DHT22;2218;51.408;7.208;2024-01-10T07:02:25;17.90;18.60
4411;DHT22;2218;51.408;7.208;2024-01-10T07:04:53;18.10;18.20
4411;DHT22;2218;51.408;7.208;2024-01-10T07:07:20;18.10;17.80
4411;DHT22;2218;51.408;7.208;2024-01-10T07:09:47;18.20;17.60
4411;DHT22;2218;51.408;7.208;2024-01-10T07:12:14;18.20;17.70
4411;DHT22;2218;51.408;7.208;2024-01-10T07:14:41;18.40;18.00
4411;DHT22;2218;51.408;7.208;2024-01-10T07:17:08;18.50;18.00
4411;DHT22;2218;51.408;7.208;2024-01-10T07:19:36;18.50;18.00
4411;DHT22;2218;51.408;7.208;2024-01-10T07:22:04;18.70;18.10
4411;DHT22;2218;51.408;7.208;2024-01-10T07:24:31;18.70;17.80
4411;DHT22;2218;51.408;7.208;2024-01-10T07:27:00;18.70;17.30
4411;DHT22;2218;51.408;7.208;2024-01-10T07:29:27;18.80;16.90
4411;DHT22;2218;51.408;7.208;2024-01-10T07:31:54;18.90;16.80
4411;DHT22;2218;51.408;7.208;2024-01-10T07:34:20;19.00;16.60
4411;DHT22;2218;51.408;7.208;2024-01-10T07:36:49;19.00;16.70
4411;DHT22;2218;51.408;7.208;2024-01-10T07:39:16;19.00;16.50
4411;DHT22;2218;51.408;7.208;2024-01-10T07:41:44;19.00;16.40
4411;DHT22;2218;51.408;7.208;2024-01-10T07:44:12;19.10;16.20
4411;DHT22;2218;51.408;7.208;2024-01-10T07:46:40;19.10;16.20
4411;DHT22;2218;51.408;7.208;2024-01-10T07:49:07;19.10;16.20
4411;DHT22;2218;51.408;7.208;2024-01-10T07:51:34;19.20;16.40
4411;DHT22;2218;51.408;7.208;2024-01-10T07:54:03;19.20;16.40
4411;DHT22;2218;51.408;7.208;2024-01-10T07:56:30;19.20;16.50
4411;DHT22;2218;51.408;7.208;2024-01-10T07:58:57;19.20;16.30
4411;DHT22;2218;51.408;7.208;2024-01-10T08:01:24;19.20;16.30
4411;DHT22;2218;51.408;7.208;2024-01-10T08:03:51;19.20;16.30
4411;DHT22;2218;51.408;7.208;2024-01-10T08:06:18;19.30;16.40
4411;DHT22;2218;51.408;7.208;2024-01-10T08:08:45;19.30;16.30
4411;DHT22;2218;51.408;7.208;2024-01-10T08:11:13;19.30;16.30
4411;DHT22;2218;51.408;7.208;2024-01-10T08:13:40;19.40;16.20
4411;DHT22;2218;51.408;7.208;2024-01-10T08:16:08;19.40;16.40
4411;DHT22;2218;51.408;7.208;2024-01-10T08:18:35;19.40;16.20
4411;DHT22;2218;51.408;7.208;2024-01-10T08:21:02;19.50;16.20
4411;DHT22;2218;51.408;7.208;2024-01-10T08:23:30;19.60;16.20
4411;DHT22;2218;51.408;7.208;2024-01-10T08:25:57;19.50;16.20
4411;DHT22;2218;51.408;7.208;2024-01-10T08:28:25;19.60;16.10
4411;DHT22;2218;51.408;7.208;2024-01-10T08:30:52;19.50;16.30
4411;DHT22;2218;51.408;7.208;2024-01-10T08:33:19;19.30;16.30
4411;DHT22;2218;51.408;7.208;2024-01-10T08:35:46;19.40;16.30
4411;DHT22;2218;51.408;7.208;2024-01-10T08:38:13;19.40;16.30
4411;DHT22;2218;51.408;7.208;2024-01-10T08:40:41;19.40;16.30
4411;DHT22;2218;51.408;7.208;2024-01-10T08:43:07;19.40;16.10
4411;DHT22;2218;51.408;7.208;2024-01-10T08:45:35;19.20;16.20
4411;DHT22;2218;51.408;7.208;2024-01-10T08:48:03;19.10;16.30
4411;DHT22;2218;51.408;7.208;2024-01-10T08:50:32;19.00;16.10
4411;DHT22;2218;51.408;7.208;2024-01-10T08:52:59;18.90;16.40
4411;DHT22;2218;51.408;7.208;2024-01-10T08:55:29;18.90;16.20
4411;DHT22;2218;51.408;7.208;2024-01-10T08:57:56;18.90;16.40
4411;DHT22;2218;51.408;7.208;2024-01-10T09:00:23;18.90;16.40
4411;DHT22;2218;51.408;7.208;2024-01-10T09:02:52;18.90;16.40
4411;DHT22;2218;51.408;7.208;2024-01-10T09:05:20;18.90;16.30
4411;DHT22;2218;51.408;7.208;2024-01-10T09:07:47;18.90;16.20
4411;DHT22;2218;51.408;7.208;2024-01-10T09:10:15;18.80;16.10
4411;DHT22;2218;51.408;7.208;2024-01-10T09:12:43;18.80;16.20
4411;DHT22;2218;51.408;7.208;2024-01-10T09:15:12;18.80;16.40
4411;DHT22;2218;51.408;7.208;2024-01-10T09:17:40;18.80;17.10
4411;DHT22;2218;51.408;7.208;2024-01-10T09:20:09;18.80;16.60
4411;DHT22;2218;51.408;7.208;2024-01-10T09:22:40;18.80;16.50
4411;DHT22;2218;51.408;7.208;2024-01-10T09:25:11;18.80;16.50
4411;DHT22;2218;51.408;7.208;2024-01-10T09:27:39;18.80;16.50
4411;DHT22;2218;51.408;7.208;2024-01-10T09:30:09;18.80;16.50
4411;DHT22;2218;51.408;7.208;2024-01-10T09:32:42;18.80;16.60
4411;DHT22;2218;51.408;7.208;2024-01-10T09:35:17;18.80;16.60
4411;DHT22;2218;51.408;7.208;2024-01-10T09:37:44;18.80;16.50
4411;DHT22;2218;51.408;7.208;2024-01-10T09:40:14;18.80;17.10
4411;DHT22;2218;51.408;7.208;2024-01-10T09:42:44;18.80;16.70
4411;DHT22;2218;51.408;7.208;2024-01-10T09:45:11;18.80;17.20
4411;DHT22;2218;51.408;7.208;2024-01-10T09:47:39;18.80;17.40
4411;DHT22;2218;51.408;7.208;2024-01-10T09:50:09;18.80;17.60
4411;DHT22;2218;51.408;7.208;2024-01-10T09:52:50;18.80;17.70
4411;DHT22;2218;51.408;7.208;2024-01-10T09:55:21;18.80;17.80
4411;DHT22;2218;51.408;7.208;2024-01-10T09:57:49;18.80;17.70
4411;DHT22;2218;51.408;7.208;2024-01-10T10:00:17;18.80;17.70
4411;DHT22;2218;51.408;7.208;2024-01-10T10:02:46;18.80;17.90
4411;DHT22;2218;51.408;7.208;2024-01-10T10:05:16;18.90;18.10
4411;DHT22;2218;51.408;7.208;2024-01-10T10:07:46;18.90;18.20
4411;DHT22;2218;51.408;7.208;2024-01-10T10:10:14;18.90;18.30
4411;DHT22;2218;51.408;7.208;2024-01-10T10:12:42;18.90;18.40
4411;DHT22;2218;51.408;7.208;2024-01-10T10:15:14;18.90;18.60
4411;DHT22;2218;51.408;7.208;2024-01-10T10:17:45;18.90;18.70
4411;DHT22;2218;51.408;7.208;2024-01-10T10:20:14;18.90;18.80
4411;DHT22;2218;51.408;7.208;2024-01-10T10:23:02;18.90;18.90
4411;DHT22;2218;51.408;7.208;2024-01-10T10:25:32;18.90;19.00
4411;DHT22;2218;51.408;7.208;2024-01-10T10:28:01;18.90;19.00
4411;DHT22;2218;51.408;7.208;2024-01-10T10:30:30;18.90;19.10
4411;DHT22;2218;51.408;7.208;2024-01-10T10:32:58;18.90;19.20
4411;DHT22;2218;51.408;7.208;2024-01-10T10:35:26;18.90;19.40
4411;DHT22;2218;51.408;7.208;2024-01-10T10:37:53;19.00;19.50
4411;DHT22;2218;51.408;7.208;2024-01-10T10:40:22;19.00;19.60
4411;DHT22;2218;51.408;7.208;2024-01-10T10:42:54;18.90;19.70
4411;DHT22;2218;51.408;7.208;2024-01-10T10:45:24;19.00;19.80
4411;DHT22;2218;51.408;7.208;2024-01-10T10:47:57;19.00;19.70
4411;DHT22;2218;51.408;7.208;2024-01-10T10:50:29;18.90;19.70
4411;DHT22;2218;51.408;7.208;2024-01-10T10:53:03;19.00;19.80
4411;DHT22;2218;51.408;7.208;2024-01-10T10:55:32;18.90;19.90
4411;DHT22;2218;51.408;7.208;2024-01-10T10:58:01;18.90;19.90
4411;DHT22;2218;51.408;7.208;2024-01-10T11:00:31;18.90;19.90
4411;DHT22;2218;51.408;7.208;2024-01-10T11:03:00;18.90;19.90
4411;DHT22;2218;51.408;7.208;2024-01-10T11:05:30;19.00;20.00
4411;DHT22;2218;51.408;7.208;2024-01-10T11:07:58;18.90;20.00
4411;DHT22;2218;51.408;7.208;2024-01-10T11:10:33;19.00;20.00
4411;DHT22;2218;51.408;7.208;2024-01-10T11:13:21;19.00;20.00
4411;DHT22;2218;51.408;7.208;2024-01-10T11:16:26;18.90;19.90
4411;DHT22;2218;51.408;7.208;2024-01-10T11:19:55;19.00;20.00
4411;DHT22;2218;51.408;7.208;2024-01-10T11:23:05;19.00;20.00
4411;DHT22;2218;51.408;7.208;2024-01-10T11:25:44;19.00;20.10
4411;DHT22;2218;51.408;7.208;2024-01-10T11:28:13;19.00;20.10
4411;DHT22;2218;51.408;7.208;2024-01-10T11:30:55;19.00;20.10
4411;DHT22;2218;51.408;7.208;2024-01-10T11:33:23;19.00;20.10
4411;DHT22;2218;51.408;7.208;2024-01-10T11:36:08;19.00;19.60
4411;DHT22;2218;51.408;7.208;2024-01-10T11:38:48;18.90;18.10
4411;DHT22;2218;51.408;7.208;2024-01-10T11:41:22;18.90;17.80
4411;DHT22;2218;51.408;7.208;2024-01-10T11:44:28;18.90;17.60
4411;DHT22;2218;51.408;7.208;2024-01-10T11:46:56;18.90;17.60
4411;DHT22;2218;51.408;7.208;2024-01-10T11:49:25;18.90;17.60
4411;DHT22;2218;51.408;7.208;2024-01-10T11:51:55;18.90;17.50
4411;DHT22;2218;51.408;7.208;2024-01-10T11:54:37;18.90;17.40
4411;DHT22;2218;51.408;7.208;2024-01-10T11:57:11;18.90;17.30
4411;DHT22;2218;51.408;7.208;2024-01-10T11:59:42;18.90;17.20
4411;DHT22;2218;51.408;7.208;2024-01-10T12:02:10;18.90;17.20
4411;DHT22;2218;51.408;7.208;2024-01-10T12:04:39;18.80;17.10
4411;DHT22;2218;51.408;7.208;2024-01-10T12:07:07;18.80;17.20
4411;DHT22;2218;51.408;7.208;2024-01-10T12:09:34;18.80;17.20
4411;DHT22;2218;51.408;7.208;2024-01-10T12:12:03;18.80;17.20
4411;DHT22;2218;51.408;7.208;2024-01-10T12:14:31;18.90;16.90
4411;DHT22;2218;51.408;7.208;2024-01-10T12:17:00;18.90;17.60
4411;DHT22;2218;51.408;7.208;2024-01-10T12:19:30;18.90;17.20
4411;DHT22;2218;51.408;7.208;2024-01-10T12:21:57;18.90;17.30
4411;DHT22;2218;51.408;7.208;2024-01-10T12:24:27;18.90;18.00
4411;DHT22;2218;51.408;7.208;2024-01-10T12:26:55;18.90;18.10
4411;DHT22;2218;51.408;7.208;2024-01-10T12:29:23;18.90;17.90
4411;DHT22;2218;51.408;7.208;2024-01-10T12:31:52;18.90;17.30
4411;DHT22;2218;51.408;7.208;2024-01-10T12:34:20;18.90;16.90
4411;DHT22;2218;51.408;7.208;2024-01-10T12:36:48;18.90;16.80
4411;DHT22;2218;51.408;7.208;2024-01-10T12:39:15;18.90;16.80
4411;DHT22;2218;51.408;7.208;2024-01-10T12:41:42;18.90;16.80
4411;DHT22;2218;51.408;7.208;2024-01-10T12:44:11;18.90;16.70
4411;DHT22;2218;51.408;7.208;2024-01-10T12:46:51;18.90;16.60
4411;DHT22;2218;51.408;7.208;2024-01-10T12:49:19;18.90;16.60
4411;DHT22;2218;51.408;7.208;2024-01-10T12:51:47;18.90;17.20
4411;DHT22;2218;51.408;7.208;2024-01-10T12:54:15;19.00;17.20
4411;DHT22;2218;51.408;7.208;2024-01-10T12:56:42;18.90;17.30
4411;DHT22;2218;51.408;7.208;2024-01-10T12:59:10;19.00;17.10
4411;DHT22;2218;51.408;7.208;2024-01-10T13:01:37;19.00;17.50
4411;DHT22;2218;51.408;7.208;2024-01-10T13:04:05;19.00;17.80
4411;DHT22;2218;51.408;7.208;2024-01-10T13:06:32;19.00;18.00
4411;DHT22;2218;51.408;7.208;2024-01-10T13:08:59;19.00;18.10
4411;DHT22;2218;51.408;7.208;2024-01-10T13:11:27;19.00;18.30
4411;DHT22;2218;51.408;7.208;2024-01-10T13:13:55;19.00;18.50
4411;DHT22;2218;51.408;7.208;2024-01-10T13:16:22;19.00;18.50
4411;DHT22;2218;51.408;7.208;2024-01-10T13:18:49;19.00;18.70
4411;DHT22;2218;51.408;7.208;2024-01-10T13:21:20;19.00;18.80
4411;DHT22;2218;51.408;7.208;2024-01-10T13:23:47;19.10;18.90
4411;DHT22;2218;51.408;7.208;2024-01-10T13:26:14;19.10;19.10
4411;DHT22;2218;51.408;7.208;2024-01-10T13:28:41;19.10;19.20
4411;DHT22;2218;51.408;7.208;2024-01-10T13:31:08;19.10;19.20
4411;DHT22;2218;51.408;7.208;2024-01-10T13:33:36;19.10;19.40
4411;DHT22;2218;51.408;7.208;2024-01-10T13:36:04;19.10;19.50
4411;DHT22;2218;51.408;7.208;2024-01-10T13:38:33;19.10;19.60
4411;DHT22;2218;51.408;7.208;2024-01-10T13:41:01;19.10;19.70
4411;DHT22;2218;51.408;7.208;2024-01-10T13:43:27;19.10;19.70
4411;DHT22;2218;51.408;7.208;2024-01-10T13:45:54;19.10;19.80
4411;DHT22;2218;51.408;7.208;2024-01-10T13:48:21;19.10;19.90
4411;DHT22;2218;51.408;7.208;2024-01-10T13:50:48;19.10;19.90
4411;DHT22;2218;51.408;7.208;2024-01-10T13:53:15;19.10;20.10
4411;DHT22;2218;51.408;7.208;2024-01-10T13:55:44;19.10;19.20
4411;DHT22;2218;51.408;7.208;2024-01-10T13:58:12;19.10;18.30
4411;DHT22;2218;51.408;7.208;2024-01-10T14:00:39;19.10;18.30
4411;DHT22;2218;51.408;7.208;2024-01-10T14:03:06;19.10;18.20
4411;DHT22;2218;51.408;7.208;2024-01-10T14:05:32;19.10;18.20
4411;DHT22;2218;51.408;7.208;2024-01-10T14:07:59;19.10;18.90
4411;DHT22;2218;51.408;7.208;2024-01-10T14:10:26;19.10;18.90
4411;DHT22;2218;51.408;7.208;2024-01-10T14:12:55;19.10;19.50
4411;DHT22;2218;51.408;7.208;2024-01-10T14:15:23;19.10;19.70
4411;DHT22;2218;51.408;7.208;2024-01-10T14:17:50;19.10;20.00
4411;DHT22;2218;51.408;7.208;2024-01-10T14:20:17;19.10;19.50
4411;DHT22;2218;51.408;7.208;2024-01-10T14:22:47;19.10;19.70
4411;DHT22;2218;51.408;7.208;2024-01-10T14:25:16;19.10;19.40
4411;DHT22;2218;51.408;7.208;2024-01-10T14:27:43;19.10;19.50
4411;DHT22;2218;51.408;7.208;2024-01-10T14:30:12;19.10;19.60
4411;DHT22;2218;51.408;7.208;2024-01-10T14:32:40;19.10;19.60
4411;DHT22;2218;51.408;7.208;2024-01-10T14:35:07;19.10;19.20
4411;DHT22;2218;51.408;7.208;2024-01-10T14:37:34;19.10;19.20
4411;DHT22;2218;51.408;7.208;2024-01-10T14:40:03;19.10;19.00
4411;DHT22;2218;51.408;7.208;2024-01-10T14:42:32;19.10;19.40
4411;DHT22;2218;51.408;7.208;2024-01-10T14:44:59;19.10;19.80
4411;DHT22;2218;51.408;7.208;2024-01-10T14:47:28;19.10;19.80
4411;DHT22;2218;51.408;7.208;2024-01-10T14:49:56;19.10;20.10
4411;DHT22;2218;51.408;7.208;2024-01-10T14:52:23;19.10;19.90
4411;DHT22;2218;51.408;7.208;2024-01-10T14:54:51;19.10;20.10
4411;DHT22;2218;51.408;7.208;2024-01-10T14:57:18;19.20;19.90
4411;DHT22;2218;51.408;7.208;2024-01-10T14:59:45;19.20;20.00
4411;DHT22;2218;51.408;7.208;2024-01-10T15:02:13;19.10;19.60
4411;DHT22;2218;51.408;7.208;2024-01-10T15:04:42;19.20;20.10
4411;DHT22;2218;51.408;7.208;2024-01-10T15:07:09;19.20;19.90
4411;DHT22;2218;51.408;7.208;2024-01-10T15:09:37;19.20;20.00
4411;DHT22;2218;51.408;7.208;2024-01-10T15:12:04;19.20;19.60
4411;DHT22;2218;51.408;7.208;2024-01-10T15:14:33;19.20;19.90
4411;DHT22;2218;51.408;7.208;2024-01-10T15:17:01;19.20;20.10
4411;DHT22;2218;51.408;7.208;2024-01-10T15:19:31;19.20;20.00
4411;DHT22;2218;51.408;7.208;2024-01-10T15:22:00;19.20;19.70
4411;DHT22;2218;51.408;7.208;2024-01-10T15:24:27;19.20;19.80
4411;DHT22;2218;51.408;7.208;2024-01-10T15:26:54;19.20;19.50
4411;DHT22;2218;51.408;7.208;2024-01-10T15:29:27;19.20;18.90
4411;DHT22;2218;51.408;7.208;2024-01-10T15:31:55;19.20;19.00
4411;DHT22;2218;51.408;7.208;2024-01-10T15:34:22;19.20;19.30
4411;DHT22;2218;51.408;7.208;2024-01-10T15:36:50;19.20;18.80
4411;DHT22;2218;51.408;7.208;2024-01-10T15:39:19;19.20;18.90
4411;DHT22;2218;51.408;7.208;2024-01-10T15:41:46;19.20;19.10
4411;DHT22;2218;51.408;7.208;2024-01-10T15:44:15;19.20;19.10
4411;DHT22;2218;51.408;7.208;2024-01-10T15:46:42;19.20;18.50
4411;DHT22;2218;51.408;7.208;2024-01-10T15:49:10;19.20;17.60
4411;DHT22;2218;51.408;7.208;2024-01-10T15:51:37;19.20;17.90
4411;DHT22;2218;51.408;7.208;2024-01-10T15:54:04;19.20;18.70
4411;DHT22;2218;51.408;7.208;2024-01-10T15:56:33;19.20;17.90
4411;DHT22;2218;51.408;7.208;2024-01-10T15:59:04;19.20;17.20
4411;DHT22;2218;51.408;7.208;2024-01-10T16:01:32;19.20;17.70
4411;DHT22;2218;51.408;7.208;2024-01-10T16:03:59;19.20;17.30
4411;DHT22;2218;51.408;7.208;2024-01-10T16:06:27;19.20;17.20
4411;DHT22;2218;51.408;7.208;2024-01-10T16:08:54;19.20;17.00
4411;DHT22;2218;51.408;7.208;2024-01-10T16:11:21;19.20;16.90